Terminal Aerodrome Forecast
Issued by NWS

Home | Current Version | Previous Version | Text Only | Print | Product List | Glossary On
Versions: 1 2 3 4 5 6 7 8 9 10 11 12 13 14 15
185
FTUS46 KSGX 261135
TAFONT
TAF
KONT 261135Z 2612/2718 VRB06KT P6SM SCT180 BKN250
     FM262000 25012G20KT P6SM SCT250
     FM270400 26007KT P6SM BKN250
     FM271400 26007KT P6SM OVC025=

USA.gov is the U.S. government's official web portal to all federal, state and local government web resources and services.